Time;durP1;ratioP1;P1;durP2;ratioP2;P2;SDS_P1;SDS_P2;PMS_P1;PMS_P2;Temp;Humidity;BMP_temperature;BMP_pressure;BME280_temperature;BME280_humidity;BME280_pressure;Samples;Min_cycle;Max_cycle;Signal;HPM_P1;HPM_P2
2023/03/08 00:01:45;;;;;;;8.03;5.00;;;4.20;99.90;;;;;;5040976;28;20662;-61
2023/03/08 00:04:10;;;;;;;13.97;5.27;;;4.50;99.90;;;;;;5052346;28;20578;-61
2023/03/08 00:06:36;;;;;;;9.80;5.07;;;4.50;99.90;;;;;;5052310;28;20178;-61
2023/03/08 00:09:02;;;;;;;9.60;5.30;;;4.30;99.90;;;;;;5052055;28;20667;-61
2023/03/08 00:11:29;;;;;;;14.63;5.13;;;4.20;99.90;;;;;;5052585;28;20606;-61
2023/03/08 00:13:55;;;;;;;14.50;5.77;;;4.20;99.90;;;;;;5052144;28;20663;-61
2023/03/08 00:16:21;;;;;;;9.97;5.23;;;4.30;99.90;;;;;;5052092;28;20670;-61
2023/03/08 00:18:47;;;;;;;12.03;5.63;;;4.30;99.90;;;;;;5037371;28;20218;-61
2023/03/08 00:21:15;;;;;;;12.27;5.90;;;4.50;99.90;;;;;;5032297;28;20181;-61
2023/03/08 00:23:42;;;;;;;14.77;5.50;;;4.40;99.90;;;;;;5032161;28;20231;-61
2023/03/08 00:26:09;;;;;;;11.63;5.77;;;4.50;99.90;;;;;;5032020;28;20170;-61
2023/03/08 00:28:34;;;;;;;10.43;5.80;;;4.40;99.90;;;;;;5037424;28;20649;-61
2023/03/08 00:31:06;;;;;;;9.43;5.63;;;4.30;99.90;;;;;;5031778;28;20189;-61
2023/03/08 00:33:33;;;;;;;12.07;6.00;;;4.50;99.90;;;;;;5014703;28;20579;-61
2023/03/08 00:36:03;;;;;;;10.13;5.23;;;4.20;99.90;;;;;;5032079;28;20200;-60
2023/03/08 00:38:31;;;;;;;10.83;5.73;;;4.30;99.90;;;;;;5026518;28;20643;-60
2023/03/08 00:40:57;;;;;;;8.77;5.43;;;4.40;99.90;;;;;;5051388;28;20307;-60
2023/03/08 00:43:22;;;;;;;12.73;5.43;;;4.30;99.90;;;;;;5051261;28;20644;-61
2023/03/08 00:45:48;;;;;;;11.90;5.40;;;4.40;99.90;;;;;;5047847;28;20610;-60
2023/03/08 00:48:14;;;;;;;8.20;4.90;;;4.50;99.90;;;;;;5047218;28;20628;-60
2023/03/08 00:50:39;;;;;;;7.70;4.70;;;4.50;99.90;;;;;;5046828;28;20188;-60
2023/03/08 00:53:05;;;;;;;8.20;5.07;;;4.40;99.90;;;;;;5045572;28;20683;-61
2023/03/08 00:55:31;;;;;;;7.40;5.13;;;4.80;99.90;;;;;;5040420;28;20170;-60
2023/03/08 00:57:57;;;;;;;11.63;5.27;;;4.40;99.90;;;;;;5049588;28;20231;-61
2023/03/08 01:00:23;;;;;;;8.33;5.40;;;4.40;99.90;;;;;;5046155;28;20169;-60
2023/03/08 01:02:48;;;;;;;9.10;5.00;;;4.30;99.90;;;;;;5039806;28;20209;-61
2023/03/08 01:05:14;;;;;;;8.87;5.90;;;4.30;99.90;;;;;;5050022;28;20255;-61
2023/03/08 01:07:40;;;;;;;9.00;5.53;;;4.40;99.90;;;;;;5051151;28;20169;-61
2023/03/08 01:10:05;;;;;;;11.27;5.40;;;4.20;99.90;;;;;;5051176;28;20742;-61
2023/03/08 01:12:33;;;;;;;8.43;5.00;;;4.30;99.90;;;;;;5051026;28;20300;-61
2023/03/08 01:14:58;;;;;;;11.70;5.57;;;4.30;99.90;;;;;;5051238;28;20227;-61
2023/03/08 01:17:24;;;;;;;9.80;6.00;;;4.30;99.90;;;;;;5051198;28;20660;-61
2023/03/08 01:19:49;;;;;;;12.07;5.97;;;4.20;99.90;;;;;;5045995;28;20641;-61
2023/03/08 01:22:15;;;;;;;8.77;5.60;;;4.30;99.90;;;;;;5031113;28;20170;-62
2023/03/08 01:24:48;;;;;;;10.27;5.63;;;4.20;99.90;;;;;;5031189;28;20260;-61
2023/03/08 01:27:15;;;;;;;11.57;5.90;;;4.20;99.90;;;;;;5031340;28;20227;-61
2023/03/08 01:29:40;;;;;;;10.93;6.63;;;4.20;99.90;;;;;;5031210;28;20177;-61
2023/03/08 01:32:09;;;;;;;16.53;6.40;;;4.20;99.90;;;;;;5031001;28;20202;-60
2023/03/08 01:34:37;;;;;;;11.73;6.07;;;4.20;99.90;;;;;;5031129;28;20170;-61
2023/03/08 01:37:04;;;;;;;13.07;6.43;;;4.20;99.90;;;;;;5031178;28;20249;-61
2023/03/08 01:39:30;;;;;;;11.13;5.90;;;4.20;99.90;;;;;;5047517;28;20176;-60
2023/03/08 01:41:56;;;;;;;9.77;5.97;;;4.20;99.90;;;;;;5050959;28;20594;-60
2023/03/08 01:44:22;;;;;;;14.77;6.67;;;4.10;99.90;;;;;;5048915;28;20174;-60
2023/03/08 01:46:48;;;;;;;12.10;5.87;;;4.40;99.90;;;;;;5038396;28;20949;-61
2023/03/08 01:49:34;;;;;;;9.00;5.63;;;4.00;99.90;;;;;;5046492;28;20249;-61
2023/03/08 01:52:08;;;;;;;8.00;4.73;;;1.60;99.90;;;;;;5036170;28;20231;-61
2023/03/08 01:54:42;;;;;;;7.13;4.50;;;4.00;99.90;;;;;;5039864;28;20185;-60
2023/03/08 01:57:14;;;;;;;9.53;5.30;;;4.00;99.90;;;;;;5045833;28;20177;-61
2023/03/08 01:59:40;;;;;;;9.37;5.23;;;3.70;99.90;;;;;;5042522;28;20192;-60
2023/03/08 02:02:06;;;;;;;9.37;5.63;;;4.20;99.90;;;;;;5046562;28;20209;-60
2023/03/08 02:04:32;;;;;;;9.80;5.63;;;4.20;99.90;;;;;;5042825;28;20216;-60
2023/03/08 02:06:58;;;;;;;10.53;5.57;;;3.90;99.90;;;;;;5053716;28;20656;-60
2023/03/08 02:09:24;;;;;;;10.63;5.90;;;3.90;99.90;;;;;;5054696;28;20213;-60
2023/03/08 02:11:50;;;;;;;11.57;6.43;;;3.90;99.90;;;;;;5054567;28;20201;-60
2023/03/08 02:14:16;;;;;;;8.83;5.83;;;3.70;99.90;;;;;;5054704;28;20189;-60
2023/03/08 02:16:42;;;;;;;16.90;7.33;;;3.70;99.90;;;;;;5054843;28;20258;-60
2023/03/08 02:19:35;;;;;;;11.53;6.03;;;4.10;99.90;;;;;;5055375;28;20206;-60
2023/03/08 02:22:08;;;;;;;12.00;6.50;;;3.40;99.90;;;;;;5036565;28;20232;-61
2023/03/08 02:24:34;;;;;;;10.20;6.70;;;3.20;99.90;;;;;;5018801;28;20177;-61
2023/03/08 02:27:09;;;;;;;12.70;7.40;;;3.20;99.90;;;;;;5035042;28;20204;-61
2023/03/08 02:29:35;;;;;;;11.87;7.13;;;3.10;99.90;;;;;;5034888;28;20237;-59
2023/03/08 02:32:01;;;;;;;13.73;7.43;;;3.00;99.90;;;;;;5034471;28;20217;-61
2023/03/08 02:34:26;;;;;;;15.43;8.57;;;3.00;99.90;;;;;;5036175;28;20243;-60
2023/03/08 02:36:52;;;;;;;14.83;8.03;;;3.00;99.90;;;;;;5036514;28;20655;-60
2023/03/08 02:39:17;;;;;;;13.77;8.00;;;2.60;99.90;;;;;;5048772;28;20177;-63
2023/03/08 02:41:43;;;;;;;14.20;8.77;;;2.70;99.90;;;;;;5056286;28;20260;-60
2023/03/08 02:44:09;;;;;;;16.17;8.57;;;2.70;99.90;;;;;;5056347;28;20181;-61
2023/03/08 02:46:35;;;;;;;15.57;8.53;;;2.50;99.90;;;;;;5038697;28;20185;-62
2023/03/08 02:49:00;;;;;;;14.10;7.90;;;2.50;99.90;;;;;;5055898;28;20181;-61
2023/03/08 02:51:26;;;;;;;14.73;8.30;;;2.60;99.90;;;;;;5045718;28;20198;-60
2023/03/08 02:53:51;;;;;;;14.97;8.00;;;2.50;99.90;;;;;;5037964;28;20636;-61
2023/03/08 02:56:17;;;;;;;14.87;8.60;;;5.90;99.90;;;;;;5049576;28;20265;-66
2023/03/08 02:58:43;;;;;;;18.67;9.63;;;2.40;99.90;;;;;;5057101;28;20173;-64
2023/03/08 03:01:13;;;;;;;15.97;8.90;;;2.40;99.90;;;;;;5050557;28;20173;-69
2023/03/08 03:03:39;;;;;;;14.50;8.60;;;2.30;99.90;;;;;;5042558;28;20272;-60
2023/03/08 03:06:11;;;;;;;14.57;8.33;;;2.30;99.90;;;;;;5034945;28;20210;-59
2023/03/08 03:08:36;;;;;;;16.00;9.43;;;2.20;99.90;;;;;;5034609;28;20237;-60
2023/03/08 03:11:19;;;;;;;17.90;10.00;;;2.20;99.90;;;;;;5052837;28;20217;-60
2023/03/08 03:13:45;;;;;;;16.33;8.30;;;2.40;99.90;;;;;;5038583;28;20247;-60
2023/03/08 03:16:14;;;;;;;16.43;8.60;;;2.20;99.90;;;;;;5044254;28;20181;-60
2023/03/08 03:18:40;;;;;;;14.57;8.67;;;2.20;99.90;;;;;;5034781;28;20204;-59
2023/03/08 03:21:10;;;;;;;17.67;9.10;;;2.30;99.90;;;;;;5040916;28;20199;-63
2023/03/08 03:23:36;;;;;;;14.37;8.23;;;2.10;99.90;;;;;;5053088;28;20180;-62
2023/03/08 03:26:17;;;;;;;15.77;8.17;;;2.20;99.90;;;;;;5040595;28;20174;-62
2023/03/08 03:28:44;;;;;;;17.37;8.23;;;2.10;99.90;;;;;;5044407;28;20173;-62
2023/03/08 03:31:12;;;;;;;16.30;8.70;;;2.10;99.90;;;;;;5033190;28;20182;-61
2023/03/08 03:33:38;;;;;;;16.23;8.93;;;2.00;99.90;;;;;;5047713;28;20221;-62
2023/03/08 03:36:05;;;;;;;13.87;8.20;;;2.10;99.90;;;;;;5053057;28;20659;-62
2023/03/08 03:38:31;;;;;;;18.37;9.77;;;2.00;99.90;;;;;;5053068;28;20201;-62
2023/03/08 03:41:04;;;;;;;17.27;9.20;;;2.00;99.90;;;;;;5052785;28;20200;-64
2023/03/08 03:43:30;;;;;;;17.50;9.27;;;1.50;99.90;;;;;;5052754;28;20189;-62
2023/03/08 03:46:02;;;;;;;19.57;9.37;;;1.80;99.90;;;;;;5023216;28;20182;-62
2023/03/08 03:48:28;;;;;;;19.90;10.20;;;1.90;99.90;;;;;;5052725;28;20173;-63
2023/03/08 03:51:06;;;;;;;19.50;9.87;;;1.80;99.90;;;;;;5052534;28;20573;-63
2023/03/08 03:53:33;;;;;;;18.53;10.37;;;1.80;99.90;;;;;;5033431;28;20200;-62
2023/03/08 03:56:04;;;;;;;20.60;10.67;;;1.90;99.90;;;;;;5040616;28;20196;-62
2023/03/08 03:58:30;;;;;;;18.43;10.93;;;;;;;;;;5044035;28;20542;-62
2023/03/08 04:00:56;;;;;;;20.63;10.50;;;3.10;99.90;;;;;;5052479;28;20636;-63
2023/03/08 04:03:22;;;;;;;19.30;10.60;;;2.20;99.90;;;;;;5052347;28;20208;-62
2023/03/08 04:05:47;;;;;;;19.13;10.40;;;1.90;99.90;;;;;;5042260;28;20185;-63
2023/03/08 04:08:13;;;;;;;23.53;11.17;;;1.70;99.90;;;;;;5034976;28;20178;-62
2023/03/08 04:10:39;;;;;;;26.27;11.37;;;1.80;99.90;;;;;;5034382;28;20228;-69
2023/03/08 04:13:04;;;;;;;21.70;11.83;;;5.70;99.90;;;;;;5052477;28;20215;-64
2023/03/08 04:15:30;;;;;;;23.03;12.30;;;1.80;99.90;;;;;;5054327;28;20165;-63
2023/03/08 04:17:56;;;;;;;24.80;11.30;;;1.80;99.90;;;;;;5053385;28;20179;-66
2023/03/08 04:20:22;;;;;;;22.97;11.50;;;3.60;99.90;;;;;;5041516;28;20181;-69
2023/03/08 04:22:48;;;;;;;24.23;11.83;;;1.90;99.90;;;;;;5054199;28;20173;-70
2023/03/08 04:25:14;;;;;;;27.43;12.90;;;1.80;99.90;;;;;;5053414;28;20176;-68
2023/03/08 04:27:40;;;;;;;25.67;13.33;;;1.90;99.90;;;;;;5053522;28;20173;-69
2023/03/08 04:30:06;;;;;;;24.83;12.30;;;1.80;99.90;;;;;;5052772;28;20166;-63
2023/03/08 04:32:32;;;;;;;30.13;14.20;;;1.90;99.90;;;;;;5038607;28;20216;-63
2023/03/08 04:34:57;;;;;;;27.00;13.10;;;1.80;99.90;;;;;;5032126;28;20553;-62
2023/03/08 04:37:23;;;;;;;27.73;13.30;;;1.90;99.90;;;;;;5032027;28;20268;-63
2023/03/08 04:39:49;;;;;;;26.47;13.40;;;1.90;99.90;;;;;;5031909;28;20193;-63
2023/03/08 04:42:15;;;;;;;31.10;15.17;;;;;;;;;;5043000;28;20174;-62
2023/03/08 04:44:41;;;;;;;28.93;13.70;;;1.90;99.90;;;;;;5051284;28;20185;-63
2023/03/08 04:47:06;;;;;;;30.67;14.30;;;2.40;99.90;;;;;;5043346;28;20185;-64
2023/03/08 04:49:32;;;;;;;32.07;14.17;;;1.70;99.90;;;;;;5031838;28;20181;-62
2023/03/08 04:51:58;;;;;;;26.73;13.87;;;1.90;99.90;;;;;;5038562;28;20204;-62
2023/03/08 04:54:23;;;;;;;29.07;14.50;;;1.90;99.90;;;;;;5051389;28;20594;-62
2023/03/08 04:56:49;;;;;;;26.80;14.33;;;1.90;99.90;;;;;;5027538;28;20181;-62
2023/03/08 04:59:15;;;;;;;26.67;14.07;;;1.90;99.90;;;;;;5045129;28;20234;-62
2023/03/08 05:01:41;;;;;;;27.17;13.87;;;2.10;99.90;;;;;;5051726;28;20587;-63
2023/03/08 05:04:10;;;;;;;26.47;13.03;;;2.00;99.90;;;;;;5031680;28;20201;-62
2023/03/08 05:06:37;;;;;;;26.87;12.60;;;2.20;99.90;;;;;;5031702;28;20178;-62
2023/03/08 05:09:03;;;;;;;31.83;14.57;;;2.00;99.90;;;;;;5031412;28;20216;-62
2023/03/08 05:11:29;;;;;;;26.43;13.07;;;2.00;99.90;;;;;;5031447;28;20650;-62
2023/03/08 05:13:57;;;;;;;28.00;13.80;;;1.70;99.90;;;;;;5032396;28;20173;-64
2023/03/08 05:16:26;;;;;;;26.03;13.40;;;1.90;99.90;;;;;;5052551;28;20650;-63
2023/03/08 05:18:52;;;;;;;28.00;13.60;;;1.90;99.90;;;;;;5052066;28;20173;-63
2023/03/08 05:21:20;;;;;;;25.83;13.30;;;1.90;99.90;;;;;;5051658;28;20715;-63
2023/03/08 05:23:46;;;;;;;29.73;14.73;;;2.00;99.90;;;;;;5051123;28;20184;-62
2023/03/08 05:26:14;;;;;;;26.70;13.30;;;2.00;99.90;;;;;;5051274;28;20176;-62
2023/03/08 05:28:40;;;;;;;27.83;13.83;;;2.60;99.90;;;;;;5051023;28;20260;-63
2023/03/08 05:31:14;;;;;;;26.73;14.03;;;2.10;99.90;;;;;;5051399;28;20200;-63
2023/03/08 05:33:41;;;;;;;26.57;13.53;;;2.00;99.90;;;;;;5051142;28;20174;-62
2023/03/08 05:36:07;;;;;;;27.00;13.70;;;2.10;99.90;;;;;;5051284;28;20256;-62
2023/03/08 05:38:33;;;;;;;25.43;13.23;;;2.00;99.90;;;;;;5048929;28;20173;-62
2023/03/08 05:41:05;;;;;;;28.53;14.33;;;2.10;99.90;;;;;;5040534;28;20177;-62
2023/03/08 05:43:30;;;;;;;26.17;13.07;;;2.20;99.90;;;;;;5046516;28;20670;-63
2023/03/08 05:45:58;;;;;;;26.07;13.97;;;2.10;99.90;;;;;;5035812;28;20177;-63
2023/03/08 05:48:24;;;;;;;28.13;13.47;;;2.20;99.90;;;;;;5031286;28;20181;-63
2023/03/08 05:50:50;;;;;;;29.50;14.23;;;2.80;99.90;;;;;;5031101;28;20174;-62
2023/03/08 05:53:16;;;;;;;29.30;14.40;;;2.00;99.90;;;;;;5030984;28;20683;-62
2023/03/08 05:55:41;;;;;;;26.80;13.67;;;2.50;99.90;;;;;;5043061;28;20211;-60
2023/03/08 05:58:07;;;;;;;28.17;14.33;;;;;;;;;;5050159;28;20181;-63
2023/03/08 06:00:33;;;;;;;30.17;14.87;;;2.00;99.90;;;;;;5015207;28;20177;-62
2023/03/08 06:03:02;;;;;;;26.33;14.03;;;1.90;99.90;;;;;;5018010;28;20670;-62
2023/03/08 06:05:31;;;;;;;28.27;13.20;;;1.80;99.90;;;;;;5039613;28;20204;-62
2023/03/08 06:07:57;;;;;;;27.03;13.63;;;1.90;99.90;;;;;;5050808;28;20180;-64
2023/03/08 06:10:23;;;;;;;26.97;13.93;;;1.90;99.90;;;;;;5050661;28;20694;-62
2023/03/08 06:12:49;;;;;;;25.97;13.43;;;2.20;99.90;;;;;;5042698;28;20209;-63
2023/03/08 06:15:14;;;;;;;27.43;14.20;;;2.10;99.90;;;;;;5031032;28;20169;-62
2023/03/08 06:17:40;;;;;;;27.63;14.67;;;2.20;99.90;;;;;;5030959;28;20174;-61
2023/03/08 06:20:07;;;;;;;30.50;14.73;;;2.00;99.90;;;;;;5034570;28;20640;-62
2023/03/08 06:22:33;;;;;;;31.70;15.17;;;;;;;;;;5040022;28;20181;-62
2023/03/08 06:24:59;;;;;;;28.47;14.10;;;2.00;99.90;;;;;;5037028;28;20196;-63
2023/03/08 06:27:25;;;;;;;30.77;14.60;;;1.90;99.90;;;;;;5031087;28;20602;-62
2023/03/08 06:29:51;;;;;;;30.83;15.33;;;2.00;99.90;;;;;;5040826;28;20279;-62
2023/03/08 06:32:17;;;;;;;28.97;14.37;;;2.00;99.90;;;;;;5034457;28;20652;-63
2023/03/08 06:34:44;;;;;;;28.93;14.77;;;;;;;;;;5034282;28;20637;-62
2023/03/08 06:37:09;;;;;;;32.97;15.60;;;2.00;99.90;;;;;;5034394;28;20273;-62
2023/03/08 06:39:36;;;;;;;28.07;15.13;;;2.00;99.90;;;;;;5034625;28;20257;-67
2023/03/08 06:42:02;;;;;;;32.73;16.27;;;2.10;99.90;;;;;;5056843;28;20235;-64
2023/03/08 06:44:28;;;;;;;30.93;16.43;;;2.00;99.90;;;;;;5054120;28;20652;-65
2023/03/08 06:46:54;;;;;;;33.93;15.30;;;2.00;99.90;;;;;;5037890;28;20170;-62
2023/03/08 06:49:20;;;;;;;31.83;16.17;;;2.10;99.90;;;;;;5026138;28;20196;-62
2023/03/08 06:51:46;;;;;;;31.60;15.60;;;2.10;99.90;;;;;;5036745;28;20212;-62
2023/03/08 06:54:16;;;;;;;31.00;16.73;;;2.10;99.90;;;;;;5033909;28;20181;-62
2023/03/08 06:56:46;;;;;;;29.73;15.37;;;2.40;99.90;;;;;;5000456;28;20783;-63
2023/03/08 06:59:12;;;;;;;31.90;15.87;;;2.30;99.90;;;;;;5037706;28;20708;-62
2023/03/08 07:01:38;;;;;;;29.97;15.20;;;2.20;99.90;;;;;;5050158;28;20220;-62
2023/03/08 07:04:04;;;;;;;32.37;15.67;;;;;;;;;;5037198;28;20652;-62
2023/03/08 07:06:30;;;;;;;31.30;15.67;;;2.20;99.90;;;;;;5053312;28;20191;-61
2023/03/08 07:08:56;;;;;;;27.87;15.10;;;2.40;99.90;;;;;;5035065;28;20180;-61
2023/03/08 07:11:21;;;;;;;31.57;15.23;;;2.10;99.90;;;;;;5053659;28;20181;-62
2023/03/08 07:13:47;;;;;;;43.57;16.00;;;2.20;99.90;;;;;;5051966;28;20659;-62
2023/03/08 07:16:14;;;;;;;31.43;15.83;;;;;;;;;;5034219;28;20186;-63
2023/03/08 07:18:41;;;;;;;28.03;15.40;;;2.50;99.90;;;;;;5052645;28;20264;-62
2023/03/08 07:21:07;;;;;;;32.03;15.33;;;2.20;99.90;;;;;;5046908;28;20252;-61
2023/03/08 07:23:33;;;;;;;28.27;15.20;;;2.30;99.90;;;;;;5036322;28;20352;-62
2023/03/08 07:25:58;;;;;;;30.60;15.10;;;2.40;99.90;;;;;;5035588;28;20256;-63
2023/03/08 07:28:24;;;;;;;34.23;16.67;;;2.40;99.90;;;;;;5051522;28;20173;-62
2023/03/08 07:30:51;;;;;;;29.03;14.50;;;2.30;99.90;;;;;;5045163;28;20173;-62
2023/03/08 07:33:18;;;;;;;27.93;14.57;;;2.40;99.90;;;;;;5050554;28;20213;-62
2023/03/08 07:35:44;;;;;;;32.00;15.77;;;2.30;99.90;;;;;;5044428;28;20181;-62
2023/03/08 07:38:11;;;;;;;26.73;13.70;;;2.40;99.90;;;;;;5033653;28;20731;-62
2023/03/08 07:40:37;;;;;;;28.93;15.60;;;2.30;99.90;;;;;;5053462;28;20173;-63
2023/03/08 07:43:03;;;;;;;28.73;14.20;;;2.20;99.90;;;;;;5052595;28;20338;-63
2023/03/08 07:45:28;;;;;;;28.73;15.43;;;2.30;99.90;;;;;;5042862;28;20169;-59
2023/03/08 07:47:54;;;;;;;27.40;14.40;;;2.40;99.90;;;;;;5035127;28;20629;-59
2023/03/08 07:50:20;;;;;;;26.93;14.50;;;2.50;99.90;;;;;;5050687;28;20177;-60
2023/03/08 07:52:46;;;;;;;28.67;14.20;;;2.50;99.90;;;;;;5033978;28;20277;-60
2023/03/08 07:55:12;;;;;;;24.17;12.67;;;1.90;99.90;;;;;;5034421;28;20611;-60
2023/03/08 07:57:38;;;;;;;27.83;14.17;;;2.20;99.90;;;;;;5016876;28;20217;-60
2023/03/08 08:00:08;;;;;;;24.50;12.90;;;2.50;99.90;;;;;;5043936;28;20174;-60
2023/03/08 08:02:37;;;;;;;29.17;12.73;;;2.60;99.90;;;;;;5036548;28;20195;-60
2023/03/08 08:05:03;;;;;;;24.00;12.87;;;2.60;99.90;;;;;;5043399;28;20184;-61
2023/03/08 08:07:30;;;;;;;23.57;12.23;;;2.60;99.90;;;;;;5049210;28;20580;-60
2023/03/08 08:09:55;;;;;;;23.10;11.77;;;2.50;99.90;;;;;;5025488;28;20226;-61
2023/03/08 08:12:22;;;;;;;22.53;11.37;;;2.40;99.90;;;;;;5032366;28;20565;-60
2023/03/08 08:14:50;;;;;;;23.00;12.53;;;2.00;99.90;;;;;;5048205;28;20189;-60
2023/03/08 08:17:18;;;;;;;23.03;12.37;;;2.20;99.90;;;;;;5052134;28;20192;-60
2023/03/08 08:19:43;;;;;;;21.20;11.67;;;2.40;99.90;;;;;;5051637;28;20192;-60
2023/03/08 08:22:09;;;;;;;21.03;11.43;;;2.50;99.90;;;;;;5052323;28;20244;-61
2023/03/08 08:24:35;;;;;;;21.50;11.87;;;2.30;99.90;;;;;;5034277;28;20173;-60
2023/03/08 08:27:00;;;;;;;19.70;10.87;;;3.50;99.90;;;;;;5049591;28;20238;-60
2023/03/08 08:29:26;;;;;;;19.20;10.83;;;2.60;99.90;;;;;;5033312;28;20640;-60
2023/03/08 08:31:52;;;;;;;21.57;10.63;;;2.50;99.90;;;;;;5037405;28;20189;-61
2023/03/08 08:34:19;;;;;;;20.37;11.10;;;2.50;99.90;;;;;;5042927;28;20775;-61
2023/03/08 08:36:45;;;;;;;21.90;11.27;;;2.40;99.90;;;;;;5018344;28;20170;-60
2023/03/08 08:39:11;;;;;;;18.10;10.60;;;2.60;99.90;;;;;;5032570;28;20636;-60
2023/03/08 08:41:36;;;;;;;19.47;10.23;;;2.50;99.90;;;;;;5043170;28;20188;-60
2023/03/08 08:44:02;;;;;;;19.43;11.10;;;2.40;99.90;;;;;;5032637;28;20193;-64
2023/03/08 08:46:29;;;;;;;19.70;11.13;;;2.50;99.90;;;;;;5034689;28;20176;-60
2023/03/08 08:48:56;;;;;;;20.63;10.53;;;2.70;99.90;;;;;;5045953;28;20181;-60
2023/03/08 08:51:22;;;;;;;22.10;10.67;;;2.70;99.90;;;;;;5037267;28;20176;-61
2023/03/08 08:53:48;;;;;;;20.07;11.00;;;2.70;99.90;;;;;;5051743;28;20178;-61
2023/03/08 08:56:15;;;;;;;21.07;11.83;;;2.70;99.90;;;;;;5033265;28;20177;-61
2023/03/08 08:58:41;;;;;;;19.20;11.50;;;2.70;99.90;;;;;;5039358;28;20189;-61
2023/03/08 09:01:35;;;;;;;15.90;10.40;;;2.50;99.90;;;;;;5034133;28;20586;-61
2023/03/08 09:04:01;;;;;;;17.70;10.53;;;2.80;99.90;;;;;;5029178;28;20186;-60
2023/03/08 09:06:28;;;;;;;18.90;10.47;;;2.80;99.90;;;;;;5039867;28;20670;-61
2023/03/08 09:08:56;;;;;;;17.77;10.73;;;2.80;99.90;;;;;;5050211;28;20180;-64
2023/03/08 09:11:24;;;;;;;16.73;10.13;;;2.80;99.90;;;;;;5049817;28;20256;-61
2023/03/08 09:13:51;;;;;;;17.77;10.67;;;2.90;99.90;;;;;;5036439;28;20640;-61
2023/03/08 09:16:27;;;;;;;16.97;10.13;;;2.90;99.90;;;;;;5031486;28;20252;-60
2023/03/08 09:18:56;;;;;;;18.23;10.90;;;3.00;99.90;;;;;;5032580;28;20174;-60
2023/03/08 09:21:23;;;;;;;18.73;10.47;;;2.90;99.90;;;;;;5034883;28;20177;-61
2023/03/08 09:23:49;;;;;;;19.17;9.67;;;3.20;99.90;;;;;;5013741;28;20182;-61
2023/03/08 09:26:14;;;;;;;16.37;10.00;;;3.10;99.90;;;;;;5035432;28;20268;-61
2023/03/08 09:28:40;;;;;;;17.10;9.57;;;3.10;99.90;;;;;;5046956;28;20181;-60
2023/03/08 09:31:11;;;;;;;17.97;10.13;;;3.30;99.90;;;;;;5031525;28;20185;-60
2023/03/08 09:33:41;;;;;;;15.17;9.17;;;3.10;99.90;;;;;;5031087;28;20287;-61
2023/03/08 09:36:07;;;;;;;15.50;9.50;;;3.10;99.90;;;;;;5013569;28;20266;-61
2023/03/08 09:38:33;;;;;;;15.13;8.60;;;3.20;99.90;;;;;;5032269;28;20592;-61
2023/03/08 09:41:19;;;;;;;13.77;8.27;;;3.10;99.90;;;;;;5013524;28;20216;-61
2023/03/08 09:44:04;;;;;;;12.67;7.83;;;3.10;99.90;;;;;;5035915;28;20173;-61
2023/03/08 09:46:34;;;;;;;13.17;7.60;;;3.20;99.90;;;;;;5031012;28;20193;-60
2023/03/08 09:49:02;;;;;;;12.00;6.83;;;3.30;99.90;;;;;;5034592;28;20200;-61
2023/03/08 09:51:34;;;;;;;12.90;8.27;;;3.40;99.90;;;;;;5030972;28;20170;-62
2023/03/08 09:54:05;;;;;;;14.90;7.30;;;3.20;99.90;;;;;;5033151;28;20652;-61
2023/03/08 09:57:00;;;;;;;14.07;7.67;;;3.30;99.90;;;;;;5014223;28;20714;-61
2023/03/08 09:59:40;;;;;;;10.97;7.27;;;3.30;99.90;;;;;;5035184;28;20714;-61
2023/03/08 10:02:17;;;;;;;12.83;7.40;;;4.00;99.90;;;;;;5044911;28;20187;-61
2023/03/08 10:04:43;;;;;;;12.80;6.87;;;3.50;99.90;;;;;;5019638;28;20190;-61
2023/03/08 10:07:17;;;;;;;11.07;6.67;;;3.40;99.90;;;;;;5032470;28;20182;-61
2023/03/08 10:10:19;;;;;;;9.87;6.30;;;3.20;99.90;;;;;;5053743;28;20217;-61
2023/03/08 10:12:55;;;;;;;11.90;6.30;;;3.10;99.90;;;;;;4993826;28;20263;-61
2023/03/08 10:15:23;;;;;;;10.17;5.60;;;3.20;99.90;;;;;;5053162;28;20169;-61
2023/03/08 10:17:58;;;;;;;8.63;5.87;;;3.00;99.90;;;;;;5036012;28;20187;-61
2023/03/08 10:20:29;;;;;;;10.53;6.47;;;3.00;99.90;;;;;;5053266;28;20730;-61
2023/03/08 10:23:12;;;;;;;9.13;6.17;;;3.00;99.90;;;;;;5053268;28;20624;-61
2023/03/08 10:25:38;;;;;;;11.23;6.33;;;3.00;99.90;;;;;;5035279;28;20176;-61
2023/03/08 10:28:15;;;;;;;9.73;5.93;;;2.90;99.90;;;;;;5053326;28;20169;-61
2023/03/08 10:30:44;;;;;;;9.37;5.43;;;3.00;99.90;;;;;;5053227;28;20177;-61
2023/03/08 10:33:13;;;;;;;10.73;5.87;;;2.90;99.90;;;;;;5053148;28;20288;-60
2023/03/08 10:35:58;;;;;;;8.07;5.70;;;3.00;99.90;;;;;;5053411;28;20223;-61
2023/03/08 10:38:31;;;;;;;9.00;5.93;;;2.90;99.90;;;;;;5053156;28;20319;-60
2023/03/08 10:41:01;;;;;;;10.67;5.90;;;3.20;99.90;;;;;;5052955;28;20184;-60
2023/03/08 10:43:45;;;;;;;9.07;5.90;;;3.00;99.90;;;;;;5052928;28;20214;-61
2023/03/08 10:46:16;;;;;;;10.80;6.10;;;3.00;99.90;;;;;;5035008;28;20181;-61
2023/03/08 10:48:43;;;;;;;8.57;5.30;;;3.10;99.90;;;;;;5052949;28;20596;-60
2023/03/08 10:51:16;;;;;;;10.37;5.60;;;3.00;99.90;;;;;;5052927;28;20295;-61
2023/03/08 10:53:53;;;;;;;8.80;5.53;;;3.10;99.90;;;;;;5052609;28;20312;-61
2023/03/08 10:56:46;;;;;;;11.23;6.10;;;3.20;99.90;;;;;;5052645;28;20180;-62
2023/03/08 10:59:33;;;;;;;9.27;5.57;;;2.90;99.90;;;;;;5052812;28;20185;-61
2023/03/08 11:02:17;;;;;;;9.30;5.90;;;3.10;99.90;;;;;;5052944;28;20169;-61
2023/03/08 11:04:57;;;;;;;12.57;6.30;;;3.00;99.90;;;;;;5053010;28;20205;-61
2023/03/08 11:07:29;;;;;;;11.97;6.73;;;2.90;99.90;;;;;;5052685;28;20177;-61
2023/03/08 11:10:14;;;;;;;11.20;6.07;;;3.00;99.90;;;;;;5014432;28;1113392;-61
2023/03/08 11:12:41;;;;;;;8.93;5.47;;;2.70;99.90;;;;;;5055635;28;20315;-60
2023/03/08 11:15:18;;;;;;;9.27;5.90;;;2.40;99.90;;;;;;5056190;28;20174;-60
2023/03/08 11:17:59;;;;;;;10.03;5.40;;;2.70;99.90;;;;;;5056174;28;20195;-61
2023/03/08 11:20:30;;;;;;;11.27;5.63;;;2.80;99.90;;;;;;5055122;28;20248;-61
2023/03/08 11:23:05;;;;;;;9.13;5.73;;;2.70;99.90;;;;;;5056025;28;20695;-60
2023/03/08 11:25:54;;;;;;;8.43;5.73;;;2.80;99.90;;;;;;5055873;28;20239;-61
2023/03/08 11:28:35;;;;;;;10.90;5.70;;;3.00;99.90;;;;;;5055899;28;20214;-60
2023/03/08 11:31:29;;;;;;;13.23;5.93;;;2.90;99.90;;;;;;5055169;28;20176;-60
2023/03/08 11:34:04;;;;;;;14.73;7.23;;;2.90;99.90;;;;;;5055106;28;20258;-60
2023/03/08 11:36:53;;;;;;;14.33;6.97;;;3.10;99.90;;;;;;5055121;28;20713;-61
2023/03/08 11:39:33;;;;;;;9.00;6.03;;;3.00;99.90;;;;;;5053166;28;20185;-60
2023/03/08 11:42:42;;;;;;;11.17;6.67;;;2.90;99.90;;;;;;5053003;28;20267;-60
2023/03/08 11:45:14;;;;;;;9.00;5.50;;;3.10;99.90;;;;;;5053467;28;20275;-60
2023/03/08 11:47:45;;;;;;;8.67;5.63;;;4.20;99.90;;;;;;5052949;28;20227;-61
2023/03/08 11:50:32;;;;;;;9.93;5.30;;;3.20;99.90;;;;;;5052753;28;20264;-60
2023/03/08 11:53:39;;;;;;;9.50;5.53;;;3.20;99.90;;;;;;5052765;28;20251;-61
2023/03/08 11:56:31;;;;;;;8.80;5.73;;;3.30;99.90;;;;;;5025375;28;20242;-60
2023/03/08 11:59:15;;;;;;;10.60;6.27;;;3.30;99.90;;;;;;5052616;28;20173;-60
2023/03/08 12:02:18;;;;;;;8.50;5.77;;;3.40;99.90;;;;;;5052471;28;20640;-60
2023/03/08 12:05:02;;;;;;;8.80;6.07;;;3.40;99.90;;;;;;5034931;28;20185;-60
2023/03/08 12:07:54;;;;;;;8.73;5.70;;;3.40;99.90;;;;;;5052483;28;20640;-60
2023/03/08 12:10:24;;;;;;;9.50;6.00;;;3.30;99.90;;;;;;5052297;28;20767;-60
2023/03/08 12:13:05;;;;;;;8.23;5.43;;;3.40;99.90;;;;;;5052258;28;20208;-60
2023/03/08 12:15:42;;;;;;;7.87;6.00;;;3.40;99.90;;;;;;5052279;28;20169;-61
2023/03/08 12:18:23;;;;;;;8.90;6.17;;;3.40;99.90;;;;;;5052346;28;20255;-61
2023/03/08 12:20:54;;;;;;;9.87;5.90;;;3.40;99.90;;;;;;5052295;28;20206;-61
2023/03/08 12:23:55;;;;;;;11.47;5.83;;;3.60;99.90;;;;;;5052089;28;20177;-60
2023/03/08 12:26:29;;;;;;;9.10;6.07;;;3.60;99.90;;;;;;5052070;28;20171;-60
2023/03/08 12:29:04;;;;;;;10.20;6.93;;;3.50;99.90;;;;;;5051775;28;20660;-60
2023/03/08 12:31:36;;;;;;;11.03;6.57;;;3.60;99.90;;;;;;5051769;28;20184;-60
2023/03/08 12:34:33;;;;;;;9.80;6.63;;;3.50;99.90;;;;;;5034737;28;20697;-60
2023/03/08 12:36:58;;;;;;;10.20;6.13;;;3.50;99.90;;;;;;5051345;28;20268;-60
2023/03/08 12:39:34;;;;;;;8.20;6.40;;;3.70;99.90;;;;;;5052030;28;20255;-61
2023/03/08 12:42:08;;;;;;;10.13;6.30;;;3.60;99.90;;;;;;5051786;28;20181;-61
2023/03/08 12:44:34;;;;;;;11.10;6.53;;;3.70;99.90;;;;;;5051901;28;20185;-60
2023/03/08 12:47:16;;;;;;;8.50;6.10;;;3.60;99.90;;;;;;5051502;28;20234;-60
2023/03/08 12:49:55;;;;;;;9.70;5.87;;;4.10;99.90;;;;;;5051637;28;20207;-60
2023/03/08 12:52:24;;;;;;;8.37;5.83;;;3.90;99.90;;;;;;5051463;28;20209;-60
2023/03/08 12:55:20;;;;;;;10.27;5.73;;;3.90;99.90;;;;;;5051497;28;20256;-61
2023/03/08 12:57:50;;;;;;;8.50;5.83;;;3.90;99.90;;;;;;5051572;28;20711;-62
2023/03/08 13:00:19;;;;;;;11.40;6.10;;;3.70;99.90;;;;;;5051530;28;20172;-60